Terminal Aerodrome Forecast
Issued by NWS Sterling, VA

Current Version | Previous Version | Text Only | Print | Product List | Glossary On
Versions: 1 2 3 4 5 6 7 8 9 10 11 12 13 14 15 16 17 18 19 20 21 22 23
000
FTUS41 KLWX 242332
TAFBWI
TAF
KBWI 242332Z 2500/2606 16006KT P6SM SCT150
     FM250400 00000KT P6SM BKN200
     FM251100 21007KT P6SM SCT120
     FM251600 21010G22KT P6SM FEW200
     FM260000 17009KT P6SM FEW150=

USA.gov is the U.S. government's official web portal to all federal, state and local government web resources and services.